sensor_id;sensor_type;location;lat;lon;timestamp;temperature;humidity
23311;DHT22;11828;51.508;18.118;2023-06-26T00:00:46;32.70;34.80
23311;DHT22;11828;51.508;18.118;2023-06-26T00:03:33;32.70;34.80
23311;DHT22;11828;51.508;18.118;2023-06-26T00:05:59;32.70;34.90
23311;DHT22;11828;51.508;18.118;2023-06-26T00:08:27;32.70;34.80
23311;DHT22;11828;51.508;18.118;2023-06-26T00:10:54;32.60;34.90
23311;DHT22;11828;51.508;18.118;2023-06-26T00:13:20;32.60;35.10
23311;DHT22;11828;51.508;18.118;2023-06-26T00:15:47;32.60;35.20
23311;DHT22;11828;51.508;18.118;2023-06-26T00:18:13;32.50;35.10
23311;DHT22;11828;51.508;18.118;2023-06-26T00:20:39;32.60;35.30
23311;DHT22;11828;51.508;18.118;2023-06-26T00:23:05;32.50;35.20
23311;DHT22;11828;51.508;18.118;2023-06-26T00:25:33;32.40;35.40
23311;DHT22;11828;51.508;18.118;2023-06-26T00:28:00;32.40;35.40
23311;DHT22;11828;51.508;18.118;2023-06-26T00:30:26;32.30;35.70
23311;DHT22;11828;51.508;18.118;2023-06-26T00:32:53;32.20;35.90
23311;DHT22;11828;51.508;18.118;2023-06-26T00:35:19;32.20;36.00
23311;DHT22;11828;51.508;18.118;2023-06-26T00:37:45;32.10;36.00
23311;DHT22;11828;51.508;18.118;2023-06-26T00:40:12;32.00;36.10
23311;DHT22;11828;51.508;18.118;2023-06-26T00:42:39;32.00;36.30
23311;DHT22;11828;51.508;18.118;2023-06-26T00:45:05;31.90;36.20
23311;DHT22;11828;51.508;18.118;2023-06-26T00:47:32;31.90;36.30
23311;DHT22;11828;51.508;18.118;2023-06-26T00:49:58;31.80;36.40
23311;DHT22;11828;51.508;18.118;2023-06-26T00:52:24;31.90;37.30
23311;DHT22;11828;51.508;18.118;2023-06-26T00:54:51;31.90;36.60
23311;DHT22;11828;51.508;18.118;2023-06-26T00:57:18;31.90;36.60
23311;DHT22;11828;51.508;18.118;2023-06-26T00:59:44;31.90;36.50
23311;DHT22;11828;51.508;18.118;2023-06-26T01:02:10;31.90;36.30
23311;DHT22;11828;51.508;18.118;2023-06-26T01:04:36;31.90;36.30
23311;DHT22;11828;51.508;18.118;2023-06-26T01:07:04;31.90;36.20
23311;DHT22;11828;51.508;18.118;2023-06-26T01:09:31;31.90;36.20
23311;DHT22;11828;51.508;18.118;2023-06-26T01:11:57;31.90;36.10
23311;DHT22;11828;51.508;18.118;2023-06-26T01:14:24;31.90;36.20
23311;DHT22;11828;51.508;18.118;2023-06-26T01:16:50;31.90;36.10
23311;DHT22;11828;51.508;18.118;2023-06-26T01:19:23;31.80;36.00
23311;DHT22;11828;51.508;18.118;2023-06-26T01:24:47;31.70;36.20
23311;DHT22;11828;51.508;18.118;2023-06-26T01:27:25;31.60;36.30
23311;DHT22;11828;51.508;18.118;2023-06-26T01:29:51;31.70;36.40
23311;DHT22;11828;51.508;18.118;2023-06-26T01:32:19;31.60;36.30
23311;DHT22;11828;51.508;18.118;2023-06-26T01:34:45;31.60;36.30
23311;DHT22;11828;51.508;18.118;2023-06-26T01:37:11;31.60;36.20
23311;DHT22;11828;51.508;18.118;2023-06-26T01:39:38;31.70;36.10
23311;DHT22;11828;51.508;18.118;2023-06-26T01:42:04;31.70;36.10
23311;DHT22;11828;51.508;18.118;2023-06-26T01:44:35;31.60;36.10
23311;DHT22;11828;51.508;18.118;2023-06-26T01:47:04;31.70;36.20
23311;DHT22;11828;51.508;18.118;2023-06-26T01:54:57;31.60;36.80
23311;DHT22;11828;51.508;18.118;2023-06-26T01:57:27;31.60;36.00
23311;DHT22;11828;51.508;18.118;2023-06-26T01:59:56;31.70;36.10
23311;DHT22;11828;51.508;18.118;2023-06-26T02:02:23;31.70;36.10
23311;DHT22;11828;51.508;18.118;2023-06-26T02:04:51;31.70;36.00
23311;DHT22;11828;51.508;18.118;2023-06-26T02:07:17;31.70;35.90
23311;DHT22;11828;51.508;18.118;2023-06-26T02:09:43;31.70;35.80
23311;DHT22;11828;51.508;18.118;2023-06-26T02:12:10;31.60;35.70
23311;DHT22;11828;51.508;18.118;2023-06-26T02:14:36;31.50;35.70
23311;DHT22;11828;51.508;18.118;2023-06-26T02:17:02;31.40;35.80
23311;DHT22;11828;51.508;18.118;2023-06-26T02:19:28;31.40;36.00
23311;DHT22;11828;51.508;18.118;2023-06-26T02:21:55;31.30;36.00
23311;DHT22;11828;51.508;18.118;2023-06-26T02:24:21;31.30;36.00
23311;DHT22;11828;51.508;18.118;2023-06-26T02:26:47;31.30;35.90
23311;DHT22;11828;51.508;18.118;2023-06-26T02:29:15;31.20;35.80
23311;DHT22;11828;51.508;18.118;2023-06-26T02:31:41;31.20;35.90
23311;DHT22;11828;51.508;18.118;2023-06-26T02:34:07;31.20;36.00
23311;DHT22;11828;51.508;18.118;2023-06-26T02:36:33;31.10;36.60
23311;DHT22;11828;51.508;18.118;2023-06-26T02:38:59;31.10;36.00
23311;DHT22;11828;51.508;18.118;2023-06-26T02:41:25;31.00;36.00
23311;DHT22;11828;51.508;18.118;2023-06-26T02:43:51;31.00;36.10
23311;DHT22;11828;51.508;18.118;2023-06-26T02:46:18;31.00;36.10
23311;DHT22;11828;51.508;18.118;2023-06-26T02:48:44;31.00;36.10
23311;DHT22;11828;51.508;18.118;2023-06-26T02:51:10;31.00;36.20
23311;DHT22;11828;51.508;18.118;2023-06-26T02:53:36;30.90;36.20
23311;DHT22;11828;51.508;18.118;2023-06-26T02:56:03;30.80;36.30
23311;DHT22;11828;51.508;18.118;2023-06-26T02:58:29;30.70;36.50
23311;DHT22;11828;51.508;18.118;2023-06-26T03:00:55;30.70;36.60
23311;DHT22;11828;51.508;18.118;2023-06-26T03:03:21;30.80;36.60
23311;DHT22;11828;51.508;18.118;2023-06-26T03:05:48;30.80;36.50
23311;DHT22;11828;51.508;18.118;2023-06-26T03:08:14;30.80;36.50
23311;DHT22;11828;51.508;18.118;2023-06-26T03:10:40;30.80;36.40
23311;DHT22;11828;51.508;18.118;2023-06-26T03:13:06;30.80;36.40
23311;DHT22;11828;51.508;18.118;2023-06-26T03:15:32;30.80;36.30
23311;DHT22;11828;51.508;18.118;2023-06-26T03:17:58;30.90;36.30
23311;DHT22;11828;51.508;18.118;2023-06-26T03:20:25;30.90;36.20
23311;DHT22;11828;51.508;18.118;2023-06-26T03:22:51;30.90;36.40
23311;DHT22;11828;51.508;18.118;2023-06-26T03:25:17;30.90;36.20
23311;DHT22;11828;51.508;18.118;2023-06-26T03:27:43;31.00;36.10
23311;DHT22;11828;51.508;18.118;2023-06-26T03:30:10;31.00;36.10
23311;DHT22;11828;51.508;18.118;2023-06-26T03:32:37;31.00;36.10
23311;DHT22;11828;51.508;18.118;2023-06-26T03:35:03;31.00;36.10
23311;DHT22;11828;51.508;18.118;2023-06-26T03:37:29;31.00;36.10
23311;DHT22;11828;51.508;18.118;2023-06-26T03:39:56;31.10;36.20
23311;DHT22;11828;51.508;18.118;2023-06-26T03:42:22;31.20;36.10
23311;DHT22;11828;51.508;18.118;2023-06-26T03:44:48;31.20;36.00
23311;DHT22;11828;51.508;18.118;2023-06-26T03:47:14;31.20;35.90
23311;DHT22;11828;51.508;18.118;2023-06-26T03:49:40;31.20;35.90
23311;DHT22;11828;51.508;18.118;2023-06-26T03:52:07;31.20;35.90
23311;DHT22;11828;51.508;18.118;2023-06-26T03:54:33;31.30;36.00
23311;DHT22;11828;51.508;18.118;2023-06-26T03:56:59;31.20;36.00
23311;DHT22;11828;51.508;18.118;2023-06-26T03:59:26;31.20;36.20
23311;DHT22;11828;51.508;18.118;2023-06-26T04:01:52;31.20;36.20
23311;DHT22;11828;51.508;18.118;2023-06-26T04:04:19;31.30;36.20
23311;DHT22;11828;51.508;18.118;2023-06-26T04:06:45;31.30;37.00
23311;DHT22;11828;51.508;18.118;2023-06-26T04:09:12;31.30;36.40
23311;DHT22;11828;51.508;18.118;2023-06-26T04:11:38;31.30;36.40
23311;DHT22;11828;51.508;18.118;2023-06-26T04:14:04;31.30;36.60
23311;DHT22;11828;51.508;18.118;2023-06-26T04:16:30;31.50;36.50
23311;DHT22;11828;51.508;18.118;2023-06-26T04:18:57;31.70;36.20
23311;DHT22;11828;51.508;18.118;2023-06-26T04:21:23;31.80;36.20
23311;DHT22;11828;51.508;18.118;2023-06-26T04:23:52;31.90;36.00
23311;DHT22;11828;51.508;18.118;2023-06-26T04:26:19;31.90;35.80
23311;DHT22;11828;51.508;18.118;2023-06-26T04:28:45;32.00;36.00
23311;DHT22;11828;51.508;18.118;2023-06-26T04:31:11;32.00;36.00
23311;DHT22;11828;51.508;18.118;2023-06-26T04:33:38;32.10;36.00
23311;DHT22;11828;51.508;18.118;2023-06-26T04:36:05;32.20;36.10
23311;DHT22;11828;51.508;18.118;2023-06-26T04:38:32;32.20;36.30
23311;DHT22;11828;51.508;18.118;2023-06-26T04:41:02;32.30;36.40
23311;DHT22;11828;51.508;18.118;2023-06-26T04:43:29;32.50;36.30
23311;DHT22;11828;51.508;18.118;2023-06-26T04:45:55;32.70;36.30
23311;DHT22;11828;51.508;18.118;2023-06-26T04:48:21;32.80;36.30
23311;DHT22;11828;51.508;18.118;2023-06-26T04:50:47;32.80;36.20
23311;DHT22;11828;51.508;18.118;2023-06-26T04:53:20;32.90;36.30
23311;DHT22;11828;51.508;18.118;2023-06-26T04:55:47;33.00;36.30
23311;DHT22;11828;51.508;18.118;2023-06-26T04:58:13;33.00;36.40
23311;DHT22;11828;51.508;18.118;2023-06-26T05:00:40;33.10;36.50
23311;DHT22;11828;51.508;18.118;2023-06-26T05:03:16;33.30;36.30
23311;DHT22;11828;51.508;18.118;2023-06-26T05:05:43;33.30;37.00
23311;DHT22;11828;51.508;18.118;2023-06-26T05:08:25;33.50;36.30
23311;DHT22;11828;51.508;18.118;2023-06-26T05:10:52;33.50;36.70
23311;DHT22;11828;51.508;18.118;2023-06-26T05:13:25;33.60;36.80
23311;DHT22;11828;51.508;18.118;2023-06-26T05:15:52;33.60;36.90
23311;DHT22;11828;51.508;18.118;2023-06-26T05:18:19;33.80;37.00
23311;DHT22;11828;51.508;18.118;2023-06-26T05:20:45;33.90;36.90
23311;DHT22;11828;51.508;18.118;2023-06-26T05:23:12;34.00;36.90
23311;DHT22;11828;51.508;18.118;2023-06-26T05:25:38;34.20;36.90
23311;DHT22;11828;51.508;18.118;2023-06-26T05:28:06;34.40;36.80
23311;DHT22;11828;51.508;18.118;2023-06-26T05:30:36;34.50;36.70
23311;DHT22;11828;51.508;18.118;2023-06-26T05:33:03;34.70;36.70
23311;DHT22;11828;51.508;18.118;2023-06-26T05:35:30;34.80;36.80
23311;DHT22;11828;51.508;18.118;2023-06-26T05:37:57;35.00;36.70
23311;DHT22;11828;51.508;18.118;2023-06-26T05:40:24;35.00;36.80
23311;DHT22;11828;51.508;18.118;2023-06-26T05:42:51;35.10;36.80
23311;DHT22;11828;51.508;18.118;2023-06-26T05:45:17;35.30;37.50
23311;DHT22;11828;51.508;18.118;2023-06-26T05:47:43;35.40;36.60
23311;DHT22;11828;51.508;18.118;2023-06-26T05:50:12;35.60;36.40
23311;DHT22;11828;51.508;18.118;2023-06-26T05:52:39;35.70;36.30
23311;DHT22;11828;51.508;18.118;2023-06-26T05:55:06;35.90;35.90
23311;DHT22;11828;51.508;18.118;2023-06-26T05:57:34;36.10;35.50
23311;DHT22;11828;51.508;18.118;2023-06-26T06:00:01;36.20;34.80
23311;DHT22;11828;51.508;18.118;2023-06-26T06:02:28;36.40;34.70
23311;DHT22;11828;51.508;18.118;2023-06-26T06:04:54;36.40;34.60
23311;DHT22;11828;51.508;18.118;2023-06-26T06:07:21;36.50;34.30
23311;DHT22;11828;51.508;18.118;2023-06-26T06:09:47;36.60;33.90
23311;DHT22;11828;51.508;18.118;2023-06-26T06:12:13;36.80;33.80
23311;DHT22;11828;51.508;18.118;2023-06-26T06:14:39;37.00;33.80
23311;DHT22;11828;51.508;18.118;2023-06-26T06:17:06;37.20;33.30
23311;DHT22;11828;51.508;18.118;2023-06-26T06:19:32;37.40;32.60
23311;DHT22;11828;51.508;18.118;2023-06-26T06:21:58;37.50;32.10
23311;DHT22;11828;51.508;18.118;2023-06-26T06:24:24;37.60;31.80
23311;DHT22;11828;51.508;18.118;2023-06-26T06:26:50;37.80;31.50
23311;DHT22;11828;51.508;18.118;2023-06-26T06:29:16;37.90;31.20
23311;DHT22;11828;51.508;18.118;2023-06-26T06:31:45;38.10;31.00
23311;DHT22;11828;51.508;18.118;2023-06-26T06:34:11;38.20;31.00
23311;DHT22;11828;51.508;18.118;2023-06-26T06:36:37;38.20;30.70
23311;DHT22;11828;51.508;18.118;2023-06-26T06:39:03;38.40;30.70
23311;DHT22;11828;51.508;18.118;2023-06-26T06:41:30;38.50;30.40
23311;DHT22;11828;51.508;18.118;2023-06-26T06:43:56;38.60;30.30
23311;DHT22;11828;51.508;18.118;2023-06-26T06:46:22;38.70;30.40
23311;DHT22;11828;51.508;18.118;2023-06-26T06:48:49;38.70;30.20
23311;DHT22;11828;51.508;18.118;2023-06-26T06:51:15;38.80;30.20
23311;DHT22;11828;51.508;18.118;2023-06-26T06:53:41;38.90;30.00
23311;DHT22;11828;51.508;18.118;2023-06-26T06:56:07;39.10;30.10
23311;DHT22;11828;51.508;18.118;2023-06-26T06:58:33;39.20;29.90
23311;DHT22;11828;51.508;18.118;2023-06-26T07:01:02;39.40;29.50
23311;DHT22;11828;51.508;18.118;2023-06-26T07:03:30;39.50;29.20
23311;DHT22;11828;51.508;18.118;2023-06-26T07:05:56;39.70;29.10
23311;DHT22;11828;51.508;18.118;2023-06-26T07:08:22;39.80;28.70
23311;DHT22;11828;51.508;18.118;2023-06-26T07:10:48;40.00;28.70
23311;DHT22;11828;51.508;18.118;2023-06-26T07:13:14;40.40;28.40
23311;DHT22;11828;51.508;18.118;2023-06-26T07:15:41;40.90;27.70
23311;DHT22;11828;51.508;18.118;2023-06-26T07:18:07;41.80;27.20
23311;DHT22;11828;51.508;18.118;2023-06-26T07:20:33;42.60;26.80
23311;DHT22;11828;51.508;18.118;2023-06-26T07:22:59;43.40;26.20
23311;DHT22;11828;51.508;18.118;2023-06-26T07:27:52;45.10;24.70
23311;DHT22;11828;51.508;18.118;2023-06-26T07:30:18;45.90;24.60
23311;DHT22;11828;51.508;18.118;2023-06-26T07:32:45;46.60;23.90
23311;DHT22;11828;51.508;18.118;2023-06-26T07:35:11;47.00;22.90
23311;DHT22;11828;51.508;18.118;2023-06-26T07:37:37;47.30;22.50
23311;DHT22;11828;51.508;18.118;2023-06-26T07:40:04;47.30;22.10
23311;DHT22;11828;51.508;18.118;2023-06-26T07:42:30;47.50;22.00
23311;DHT22;11828;51.508;18.118;2023-06-26T07:44:58;47.50;22.00
23311;DHT22;11828;51.508;18.118;2023-06-26T07:47:23;47.50;22.00
23311;DHT22;11828;51.508;18.118;2023-06-26T07:49:50;47.50;22.00
23311;DHT22;11828;51.508;18.118;2023-06-26T07:52:17;47.40;21.70
23311;DHT22;11828;51.508;18.118;2023-06-26T07:54:44;47.50;21.80
23311;DHT22;11828;51.508;18.118;2023-06-26T07:57:12;47.80;21.40
23311;DHT22;11828;51.508;18.118;2023-06-26T07:59:38;48.20;21.10
23311;DHT22;11828;51.508;18.118;2023-06-26T08:02:04;48.30;20.90
23311;DHT22;11828;51.508;18.118;2023-06-26T08:04:31;48.70;20.40
23311;DHT22;11828;51.508;18.118;2023-06-26T08:06:58;49.70;19.90
23311;DHT22;11828;51.508;18.118;2023-06-26T08:09:27;49.70;20.70
23311;DHT22;11828;51.508;18.118;2023-06-26T08:11:54;50.30;20.30
23311;DHT22;11828;51.508;18.118;2023-06-26T08:14:21;50.90;19.90
23311;DHT22;11828;51.508;18.118;2023-06-26T08:16:47;51.40;19.60
23311;DHT22;11828;51.508;18.118;2023-06-26T08:19:14;51.90;19.00
23311;DHT22;11828;51.508;18.118;2023-06-26T08:21:42;52.20;18.60
23311;DHT22;11828;51.508;18.118;2023-06-26T08:24:09;52.50;19.20
23311;DHT22;11828;51.508;18.118;2023-06-26T08:26:36;52.70;18.30
23311;DHT22;11828;51.508;18.118;2023-06-26T08:29:03;53.00;18.10
23311;DHT22;11828;51.508;18.118;2023-06-26T08:31:34;53.40;17.60
23311;DHT22;11828;51.508;18.118;2023-06-26T08:34:01;53.50;17.40
23311;DHT22;11828;51.508;18.118;2023-06-26T08:36:28;53.80;16.80
23311;DHT22;11828;51.508;18.118;2023-06-26T08:38:55;53.80;16.60
23311;DHT22;11828;51.508;18.118;2023-06-26T08:41:21;54.00;16.80
23311;DHT22;11828;51.508;18.118;2023-06-26T08:43:47;54.10;16.60
23311;DHT22;11828;51.508;18.118;2023-06-26T08:46:14;54.20;16.60
23311;DHT22;11828;51.508;18.118;2023-06-26T08:48:42;54.30;16.30
23311;DHT22;11828;51.508;18.118;2023-06-26T08:51:16;54.20;16.10
23311;DHT22;11828;51.508;18.118;2023-06-26T08:53:52;53.50;16.40
23311;DHT22;11828;51.508;18.118;2023-06-26T08:56:27;52.70;16.40
23311;DHT22;11828;51.508;18.118;2023-06-26T08:58:56;51.60;16.50
23311;DHT22;11828;51.508;18.118;2023-06-26T09:01:24;51.10;17.00
23311;DHT22;11828;51.508;18.118;2023-06-26T09:03:51;50.80;17.10
23311;DHT22;11828;51.508;18.118;2023-06-26T09:06:18;50.80;17.50
23311;DHT22;11828;51.508;18.118;2023-06-26T09:08:44;51.20;17.70
23311;DHT22;11828;51.508;18.118;2023-06-26T09:11:10;51.70;17.50
23311;DHT22;11828;51.508;18.118;2023-06-26T09:13:37;52.10;17.50
23311;DHT22;11828;51.508;18.118;2023-06-26T09:16:07;52.50;17.00
23311;DHT22;11828;51.508;18.118;2023-06-26T09:18:37;52.60;16.50
23311;DHT22;11828;51.508;18.118;2023-06-26T09:21:07;52.80;16.90
23311;DHT22;11828;51.508;18.118;2023-06-26T09:23:35;52.80;16.40
23311;DHT22;11828;51.508;18.118;2023-06-26T09:26:05;53.00;16.90
23311;DHT22;11828;51.508;18.118;2023-06-26T09:28:32;53.20;16.50
23311;DHT22;11828;51.508;18.118;2023-06-26T09:31:05;53.40;15.90
23311;DHT22;11828;51.508;18.118;2023-06-26T09:33:37;53.40;15.90
23311;DHT22;11828;51.508;18.118;2023-06-26T09:36:08;53.50;15.90
23311;DHT22;11828;51.508;18.118;2023-06-26T09:38:38;53.70;15.90
23311;DHT22;11828;51.508;18.118;2023-06-26T09:41:04;54.20;15.60
23311;DHT22;11828;51.508;18.118;2023-06-26T09:43:30;53.70;15.00
23311;DHT22;11828;51.508;18.118;2023-06-26T09:45:57;52.90;15.20
23311;DHT22;11828;51.508;18.118;2023-06-26T09:48:24;51.90;15.80
23311;DHT22;11828;51.508;18.118;2023-06-26T09:50:51;50.90;16.50
23311;DHT22;11828;51.508;18.118;2023-06-26T09:53:17;50.60;17.00
23311;DHT22;11828;51.508;18.118;2023-06-26T09:55:44;50.20;17.20
23311;DHT22;11828;51.508;18.118;2023-06-26T09:58:11;50.00;17.10
23311;DHT22;11828;51.508;18.118;2023-06-26T10:00:44;49.90;16.80
23311;DHT22;11828;51.508;18.118;2023-06-26T10:03:10;50.00;16.80
23311;DHT22;11828;51.508;18.118;2023-06-26T10:05:39;50.00;17.00
23311;DHT22;11828;51.508;18.118;2023-06-26T10:08:06;49.60;17.20
23311;DHT22;11828;51.508;18.118;2023-06-26T10:10:35;49.20;17.70
23311;DHT22;11828;51.508;18.118;2023-06-26T10:13:25;48.60;17.90
23311;DHT22;11828;51.508;18.118;2023-06-26T10:15:54;47.80;19.20
23311;DHT22;11828;51.508;18.118;2023-06-26T10:18:24;47.00;18.70
23311;DHT22;11828;51.508;18.118;2023-06-26T10:20:54;46.40;19.20
23311;DHT22;11828;51.508;18.118;2023-06-26T10:23:23;45.90;19.80
23311;DHT22;11828;51.508;18.118;2023-06-26T10:25:52;45.70;20.20
23311;DHT22;11828;51.508;18.118;2023-06-26T10:28:22;45.40;20.30
23311;DHT22;11828;51.508;18.118;2023-06-26T10:30:50;45.20;20.50
23311;DHT22;11828;51.508;18.118;2023-06-26T10:33:19;45.20;20.80
23311;DHT22;11828;51.508;18.118;2023-06-26T10:35:45;45.50;20.50
23311;DHT22;11828;51.508;18.118;2023-06-26T10:38:12;45.90;20.10
23311;DHT22;11828;51.508;18.118;2023-06-26T10:40:48;46.50;19.60
23311;DHT22;11828;51.508;18.118;2023-06-26T10:43:15;46.80;19.50
23311;DHT22;11828;51.508;18.118;2023-06-26T10:45:47;47.10;19.20
23311;DHT22;11828;51.508;18.118;2023-06-26T10:48:20;47.00;18.90
23311;DHT22;11828;51.508;18.118;2023-06-26T10:50:49;47.00;19.60
23311;DHT22;11828;51.508;18.118;2023-06-26T10:53:23;47.10;19.00
23311;DHT22;11828;51.508;18.118;2023-06-26T10:56:00;47.00;18.60
23311;DHT22;11828;51.508;18.118;2023-06-26T10:58:47;47.00;18.60
23311;DHT22;11828;51.508;18.118;2023-06-26T11:01:21;46.70;18.90
23311;DHT22;11828;51.508;18.118;2023-06-26T11:03:59;46.70;19.20
23311;DHT22;11828;51.508;18.118;2023-06-26T11:06:29;46.60;19.40
23311;DHT22;11828;51.508;18.118;2023-06-26T11:09:09;46.30;19.90
23311;DHT22;11828;51.508;18.118;2023-06-26T11:14:24;45.70;19.80
23311;DHT22;11828;51.508;18.118;2023-06-26T11:16:51;45.80;19.70
23311;DHT22;11828;51.508;18.118;2023-06-26T11:19:18;46.00;19.50
23311;DHT22;11828;51.508;18.118;2023-06-26T11:21:45;46.20;19.30
23311;DHT22;11828;51.508;18.118;2023-06-26T11:24:13;46.20;19.40
23311;DHT22;11828;51.508;18.118;2023-06-26T11:26:40;46.20;19.40
23311;DHT22;11828;51.508;18.118;2023-06-26T11:29:07;45.90;19.70
23311;DHT22;11828;51.508;18.118;2023-06-26T11:31:38;45.80;20.00
23311;DHT22;11828;51.508;18.118;2023-06-26T11:34:07;45.90;20.00
23311;DHT22;11828;51.508;18.118;2023-06-26T11:36:39;46.30;19.90
23311;DHT22;11828;51.508;18.118;2023-06-26T11:39:08;46.60;19.70
23311;DHT22;11828;51.508;18.118;2023-06-26T11:41:39;46.70;19.20
23311;DHT22;11828;51.508;18.118;2023-06-26T11:44:07;46.70;19.20
23311;DHT22;11828;51.508;18.118;2023-06-26T11:46:35;46.60;18.90
23311;DHT22;11828;51.508;18.118;2023-06-26T11:49:07;46.30;19.30
23311;DHT22;11828;51.508;18.118;2023-06-26T11:51:34;45.90;19.30
23311;DHT22;11828;51.508;18.118;2023-06-26T11:54:04;45.80;19.90
23311;DHT22;11828;51.508;18.118;2023-06-26T11:56:31;45.80;20.00
23311;DHT22;11828;51.508;18.118;2023-06-26T12:01:34;45.70;20.40
23311;DHT22;11828;51.508;18.118;2023-06-26T12:04:15;45.80;20.20
23311;DHT22;11828;51.508;18.118;2023-06-26T12:06:46;45.70;20.20
23311;DHT22;11828;51.508;18.118;2023-06-26T12:09:14;45.70;20.40
23311;DHT22;11828;51.508;18.118;2023-06-26T12:11:42;45.80;20.30
23311;DHT22;11828;51.508;18.118;2023-06-26T12:14:10;45.90;20.30
23311;DHT22;11828;51.508;18.118;2023-06-26T12:16:37;45.90;20.30
23311;DHT22;11828;51.508;18.118;2023-06-26T12:19:05;46.10;20.10
23311;DHT22;11828;51.508;18.118;2023-06-26T12:24:12;46.20;20.20
23311;DHT22;11828;51.508;18.118;2023-06-26T12:26:45;46.30;20.40
23311;DHT22;11828;51.508;18.118;2023-06-26T12:29:15;46.70;20.40
23311;DHT22;11828;51.508;18.118;2023-06-26T12:31:45;47.00;20.00
23311;DHT22;11828;51.508;18.118;2023-06-26T12:34:13;47.40;19.70
23311;DHT22;11828;51.508;18.118;2023-06-26T12:36:48;47.60;19.50
23311;DHT22;11828;51.508;18.118;2023-06-26T12:39:17;47.50;19.40
23311;DHT22;11828;51.508;18.118;2023-06-26T12:41:57;47.50;19.50
23311;DHT22;11828;51.508;18.118;2023-06-26T12:44:30;47.40;19.60
23311;DHT22;11828;51.508;18.118;2023-06-26T12:47:01;47.30;19.70
23311;DHT22;11828;51.508;18.118;2023-06-26T12:49:34;47.20;19.50
23311;DHT22;11828;51.508;18.118;2023-06-26T12:52:04;47.10;19.40
23311;DHT22;11828;51.508;18.118;2023-06-26T12:54:32;46.80;19.40
23311;DHT22;11828;51.508;18.118;2023-06-26T12:56:59;46.80;19.80
23311;DHT22;11828;51.508;18.118;2023-06-26T12:59:25;46.60;19.60
23311;DHT22;11828;51.508;18.118;2023-06-26T13:01:52;46.10;19.80
23311;DHT22;11828;51.508;18.118;2023-06-26T13:04:18;45.50;20.40
23311;DHT22;11828;51.508;18.118;2023-06-26T13:06:44;44.90;20.60
23311;DHT22;11828;51.508;18.118;2023-06-26T13:09:12;44.30;20.90
23311;DHT22;11828;51.508;18.118;2023-06-26T13:11:39;44.00;21.10
23311;DHT22;11828;51.508;18.118;2023-06-26T13:14:05;43.70;21.50
23311;DHT22;11828;51.508;18.118;2023-06-26T13:16:31;43.40;21.70
23311;DHT22;11828;51.508;18.118;2023-06-26T13:18:59;43.20;22.50
23311;DHT22;11828;51.508;18.118;2023-06-26T13:21:26;43.00;22.00
23311;DHT22;11828;51.508;18.118;2023-06-26T13:23:52;43.20;22.10
23311;DHT22;11828;51.508;18.118;2023-06-26T13:26:20;43.40;22.40
23311;DHT22;11828;51.508;18.118;2023-06-26T13:28:48;43.50;21.90
23311;DHT22;11828;51.508;18.118;2023-06-26T13:31:15;43.50;22.00
23311;DHT22;11828;51.508;18.118;2023-06-26T13:33:41;43.40;22.30
23311;DHT22;11828;51.508;18.118;2023-06-26T13:36:08;43.30;22.30
23311;DHT22;11828;51.508;18.118;2023-06-26T13:38:34;43.20;22.80
23311;DHT22;11828;51.508;18.118;2023-06-26T13:41:00;43.30;22.20
23311;DHT22;11828;51.508;18.118;2023-06-26T13:43:27;43.80;22.00
23311;DHT22;11828;51.508;18.118;2023-06-26T13:45:55;44.40;21.80
23311;DHT22;11828;51.508;18.118;2023-06-26T13:48:22;44.70;21.50
23311;DHT22;11828;51.508;18.118;2023-06-26T13:50:50;45.10;21.30
23311;DHT22;11828;51.508;18.118;2023-06-26T13:53:16;45.70;21.30
23311;DHT22;11828;51.508;18.118;2023-06-26T13:55:43;46.30;20.90
23311;DHT22;11828;51.508;18.118;2023-06-26T13:58:09;46.70;20.60
23311;DHT22;11828;51.508;18.118;2023-06-26T14:00:37;47.00;20.50
23311;DHT22;11828;51.508;18.118;2023-06-26T14:03:04;47.00;20.00
23311;DHT22;11828;51.508;18.118;2023-06-26T14:05:36;46.80;20.60
23311;DHT22;11828;51.508;18.118;2023-06-26T14:08:06;46.60;20.20
23311;DHT22;11828;51.508;18.118;2023-06-26T14:10:33;46.70;20.50
23311;DHT22;11828;51.508;18.118;2023-06-26T14:13:00;47.00;20.60
23311;DHT22;11828;51.508;18.118;2023-06-26T14:15:26;47.30;20.60
23311;DHT22;11828;51.508;18.118;2023-06-26T14:17:53;47.70;20.10
23311;DHT22;11828;51.508;18.118;2023-06-26T14:20:22;47.60;20.00
23311;DHT22;11828;51.508;18.118;2023-06-26T14:22:49;47.20;19.90
23311;DHT22;11828;51.508;18.118;2023-06-26T14:25:16;46.50;20.20
23311;DHT22;11828;51.508;18.118;2023-06-26T14:27:42;45.90;20.30
23311;DHT22;11828;51.508;18.118;2023-06-26T14:30:09;45.30;20.90
23311;DHT22;11828;51.508;18.118;2023-06-26T14:32:35;44.70;21.20
23311;DHT22;11828;51.508;18.118;2023-06-26T14:35:03;44.20;21.60
23311;DHT22;11828;51.508;18.118;2023-06-26T14:37:30;43.80;22.00
23311;DHT22;11828;51.508;18.118;2023-06-26T14:39:57;43.40;22.30
23311;DHT22;11828;51.508;18.118;2023-06-26T14:42:24;43.10;22.80
23311;DHT22;11828;51.508;18.118;2023-06-26T14:44:51;42.80;23.10
23311;DHT22;11828;51.508;18.118;2023-06-26T14:47:17;42.60;23.50
23311;DHT22;11828;51.508;18.118;2023-06-26T14:49:44;42.50;23.90
23311;DHT22;11828;51.508;18.118;2023-06-26T14:52:10;42.60;23.80
23311;DHT22;11828;51.508;18.118;2023-06-26T14:54:36;42.70;24.00
23311;DHT22;11828;51.508;18.118;2023-06-26T14:57:03;42.60;24.10
23311;DHT22;11828;51.508;18.118;2023-06-26T14:59:30;42.40;23.90
23311;DHT22;11828;51.508;18.118;2023-06-26T15:01:56;42.30;24.50
23311;DHT22;11828;51.508;18.118;2023-06-26T15:04:22;42.40;24.10
23311;DHT22;11828;51.508;18.118;2023-06-26T15:06:48;42.40;24.10
23311;DHT22;11828;51.508;18.118;2023-06-26T15:09:14;42.40;24.10
23311;DHT22;11828;51.508;18.118;2023-06-26T15:11:41;42.30;24.00
23311;DHT22;11828;51.508;18.118;2023-06-26T15:14:07;42.20;24.00
23311;DHT22;11828;51.508;18.118;2023-06-26T15:16:33;42.20;24.10
23311;DHT22;11828;51.508;18.118;2023-06-26T15:18:59;42.20;24.10
23311;DHT22;11828;51.508;18.118;2023-06-26T15:21:26;42.10;24.50
23311;DHT22;11828;51.508;18.118;2023-06-26T15:23:52;42.00;24.20
23311;DHT22;11828;51.508;18.118;2023-06-26T15:26:18;41.90;24.20
23311;DHT22;11828;51.508;18.118;2023-06-26T15:28:45;41.90;24.40
23311;DHT22;11828;51.508;18.118;2023-06-26T15:31:11;41.80;24.30
23311;DHT22;11828;51.508;18.118;2023-06-26T15:33:37;41.70;24.30
23311;DHT22;11828;51.508;18.118;2023-06-26T15:36:04;41.60;24.30